sensor_id;sensor_type;location;lat;lon;timestamp;pressure;altitude;pressure_sealevel;temperature;humidity
7990;BME280;4040;42.848;23.034;2023-03-04T00:00:59;94963.22;;;6.07;100.00
7990;BME280;4040;42.848;23.034;2023-03-04T00:11:09;94959.00;;;6.06;100.00
7990;BME280;4040;42.848;23.034;2023-03-04T00:16:59;94949.38;;;5.98;100.00
7990;BME280;4040;42.848;23.034;2023-03-04T00:22:51;94948.59;;;5.94;100.00
7990;BME280;4040;42.848;23.034;2023-03-04T00:28:39;94953.81;;;5.80;100.00
7990;BME280;4040;42.848;23.034;2023-03-04T00:34:30;94949.66;;;5.86;100.00
7990;BME280;4040;42.848;23.034;2023-03-04T00:40:19;94936.53;;;5.74;100.00
7990;BME280;4040;42.848;23.034;2023-03-04T00:46:07;94940.44;;;5.80;100.00
7990;BME280;4040;42.848;23.034;2023-03-04T00:51:58;94934.22;;;5.73;100.00
7990;BME280;4040;42.848;23.034;2023-03-04T00:57:46;94918.66;;;5.45;100.00
7990;BME280;4040;42.848;23.034;2023-03-04T01:03:35;94918.84;;;5.63;100.00
7990;BME280;4040;42.848;23.034;2023-03-04T01:13:47;94916.56;;;5.61;100.00
7990;BME280;4040;42.848;23.034;2023-03-04T01:19:35;94901.09;;;5.44;100.00
7990;BME280;4040;42.848;23.034;2023-03-04T01:25:24;94875.00;;;5.31;100.00
7990;BME280;4040;42.848;23.034;2023-03-04T01:31:14;94901.16;;;5.48;100.00
7990;BME280;4040;42.848;23.034;2023-03-04T01:37:03;94898.91;;;5.53;100.00
7990;BME280;4040;42.848;23.034;2023-03-04T01:42:51;94907.66;;;5.50;100.00
7990;BME280;4040;42.848;23.034;2023-03-04T01:48:42;94888.22;;;5.53;100.00
7990;BME280;4040;42.848;23.034;2023-03-04T01:54:51;94877.41;;;5.39;100.00
7990;BME280;4040;42.848;23.034;2023-03-04T02:00:50;94881.94;;;5.35;100.00
7990;BME280;4040;42.848;23.034;2023-03-04T02:06:40;94874.66;;;5.32;100.00
7990;BME280;4040;42.848;23.034;2023-03-04T02:16:51;94881.22;;;5.38;100.00
7990;BME280;4040;42.848;23.034;2023-03-04T02:22:48;94879.78;;;5.48;100.00
7990;BME280;4040;42.848;23.034;2023-03-04T02:28:41;94877.28;;;5.29;100.00
7990;BME280;4040;42.848;23.034;2023-03-04T02:34:32;94874.69;;;5.36;100.00
7990;BME280;4040;42.848;23.034;2023-03-04T02:40:24;94880.25;;;5.20;100.00
7990;BME280;4040;42.848;23.034;2023-03-04T02:46:16;94870.38;;;5.24;100.00
7990;BME280;4040;42.848;23.034;2023-03-04T02:52:07;94865.38;;;5.19;100.00
7990;BME280;4040;42.848;23.034;2023-03-04T02:57:56;94833.94;;;5.06;100.00
7990;BME280;4040;42.848;23.034;2023-03-04T03:03:46;94859.66;;;5.21;100.00
7990;BME280;4040;42.848;23.034;2023-03-04T03:09:35;94781.59;;;4.62;100.00
7990;BME280;4040;42.848;23.034;2023-03-04T03:19:47;94858.78;;;5.10;100.00
7990;BME280;4040;42.848;23.034;2023-03-04T03:25:36;94860.50;;;4.92;100.00
7990;BME280;4040;42.848;23.034;2023-03-04T03:31:24;94848.72;;;4.96;100.00
7990;BME280;4040;42.848;23.034;2023-03-04T03:37:14;94854.16;;;5.07;100.00
7990;BME280;4040;42.848;23.034;2023-03-04T03:43:03;94841.84;;;4.95;100.00
7990;BME280;4040;42.848;23.034;2023-03-04T03:48:52;94849.44;;;4.93;100.00
7990;BME280;4040;42.848;23.034;2023-03-04T03:54:42;94844.94;;;4.97;100.00
7990;BME280;4040;42.848;23.034;2023-03-04T04:00:30;94841.69;;;4.82;100.00
7990;BME280;4040;42.848;23.034;2023-03-04T04:06:19;94838.22;;;4.78;100.00
7990;BME280;4040;42.848;23.034;2023-03-04T04:12:27;94831.75;;;4.79;100.00
7990;BME280;4040;42.848;23.034;2023-03-04T04:22:37;94833.13;;;4.66;100.00
7990;BME280;4040;42.848;23.034;2023-03-04T04:28:27;94830.44;;;4.66;100.00
7990;BME280;4040;42.848;23.034;2023-03-04T04:34:16;94830.66;;;4.54;100.00
7990;BME280;4040;42.848;23.034;2023-03-04T04:40:06;94814.88;;;4.42;100.00
7990;BME280;4040;42.848;23.034;2023-03-04T04:45:58;94830.59;;;4.47;100.00
7990;BME280;4040;42.848;23.034;2023-03-04T04:51:46;94834.69;;;4.41;100.00
7990;BME280;4040;42.848;23.034;2023-03-04T04:57:35;94849.47;;;4.35;100.00
7990;BME280;4040;42.848;23.034;2023-03-04T05:03:25;94844.69;;;4.21;100.00
7990;BME280;4040;42.848;23.034;2023-03-04T05:09:14;94844.53;;;4.11;100.00
7990;BME280;4040;42.848;23.034;2023-03-04T05:15:03;94848.56;;;4.24;100.00
7990;BME280;4040;42.848;23.034;2023-03-04T05:25:15;94842.38;;;4.46;100.00
7990;BME280;4040;42.848;23.034;2023-03-04T05:31:04;94864.13;;;4.48;100.00
7990;BME280;4040;42.848;23.034;2023-03-04T05:36:53;94860.81;;;4.58;100.00
7990;BME280;4040;42.848;23.034;2023-03-04T05:42:43;94862.75;;;4.61;100.00
7990;BME280;4040;42.848;23.034;2023-03-04T05:48:32;94876.75;;;4.80;100.00
7990;BME280;4040;42.848;23.034;2023-03-04T05:54:21;94864.81;;;5.03;100.00
7990;BME280;4040;42.848;23.034;2023-03-04T06:00:13;94880.13;;;5.43;100.00
7990;BME280;4040;42.848;23.034;2023-03-04T06:06:03;94886.13;;;5.73;100.00
7990;BME280;4040;42.848;23.034;2023-03-04T06:11:51;94881.66;;;5.84;100.00
7990;BME280;4040;42.848;23.034;2023-03-04T06:17:42;94882.34;;;5.74;100.00
7990;BME280;4040;42.848;23.034;2023-03-04T06:27:52;94903.25;;;6.08;100.00
7990;BME280;4040;42.848;23.034;2023-03-04T06:33:45;94903.25;;;6.08;100.00
7990;BME280;4040;42.848;23.034;2023-03-04T06:39:34;94877.16;;;5.91;100.00
7990;BME280;4040;42.848;23.034;2023-03-04T06:45:23;94862.69;;;5.99;100.00
7990;BME280;4040;42.848;23.034;2023-03-04T06:51:14;94897.47;;;6.57;100.00
7990;BME280;4040;42.848;23.034;2023-03-04T06:57:03;94836.88;;;6.17;100.00
7990;BME280;4040;42.848;23.034;2023-03-04T07:02:52;94909.09;;;6.78;100.00
7990;BME280;4040;42.848;23.034;2023-03-04T07:08:42;94905.47;;;6.46;100.00
7990;BME280;4040;42.848;23.034;2023-03-04T07:14:32;94912.25;;;6.94;100.00
7990;BME280;4040;42.848;23.034;2023-03-04T07:20:21;94899.31;;;7.10;100.00
7990;BME280;4040;42.848;23.034;2023-03-04T07:30:33;94917.81;;;7.50;100.00
7990;BME280;4040;42.848;23.034;2023-03-04T07:36:23;94914.75;;;7.44;100.00
7990;BME280;4040;42.848;23.034;2023-03-04T07:42:11;94912.84;;;7.52;100.00
7990;BME280;4040;42.848;23.034;2023-03-04T07:48:01;94921.69;;;7.63;100.00
7990;BME280;4040;42.848;23.034;2023-03-04T07:53:51;94915.59;;;7.80;100.00
7990;BME280;4040;42.848;23.034;2023-03-04T07:59:40;94920.19;;;7.83;100.00
7990;BME280;4040;42.848;23.034;2023-03-04T08:05:30;94929.41;;;7.85;100.00
7990;BME280;4040;42.848;23.034;2023-03-04T08:11:20;94924.84;;;8.28;100.00
7990;BME280;4040;42.848;23.034;2023-03-04T08:17:08;94912.97;;;8.57;100.00
7990;BME280;4040;42.848;23.034;2023-03-04T08:23:02;94919.09;;;8.68;100.00
7990;BME280;4040;42.848;23.034;2023-03-04T08:33:18;94917.13;;;7.74;100.00
7990;BME280;4040;42.848;23.034;2023-03-04T08:39:15;94914.84;;;7.83;100.00
7990;BME280;4040;42.848;23.034;2023-03-04T08:45:06;94914.06;;;7.86;100.00
7990;BME280;4040;42.848;23.034;2023-03-04T08:50:57;94911.78;;;8.02;100.00
7990;BME280;4040;42.848;23.034;2023-03-04T08:56:48;94907.19;;;8.02;100.00
7990;BME280;4040;42.848;23.034;2023-03-04T09:02:38;94910.63;;;7.82;100.00
7990;BME280;4040;42.848;23.034;2023-03-04T09:08:29;94904.50;;;7.85;100.00
7990;BME280;4040;42.848;23.034;2023-03-04T09:14:31;94894.16;;;7.90;100.00
7990;BME280;4040;42.848;23.034;2023-03-04T09:20:24;94865.78;;;7.72;100.00
7990;BME280;4040;42.848;23.034;2023-03-04T09:26:16;94888.06;;;8.11;100.00
7990;BME280;4040;42.848;23.034;2023-03-04T09:36:30;94883.47;;;8.46;100.00
7990;BME280;4040;42.848;23.034;2023-03-04T09:42:24;94884.97;;;8.54;100.00
7990;BME280;4040;42.848;23.034;2023-03-04T09:48:16;94858.91;;;8.55;100.00
7990;BME280;4040;42.848;23.034;2023-03-04T09:54:09;94873.38;;;9.03;100.00
7990;BME280;4040;42.848;23.034;2023-03-04T10:00:05;94880.97;;;9.18;100.00
7990;BME280;4040;42.848;23.034;2023-03-04T10:06:01;94862.72;;;8.68;100.00
7990;BME280;4040;42.848;23.034;2023-03-04T10:11:59;94870.34;;;8.80;100.00
7990;BME280;4040;42.848;23.034;2023-03-04T10:17:51;94861.97;;;8.60;100.00
7990;BME280;4040;42.848;23.034;2023-03-04T10:23:43;94856.16;;;8.76;100.00
7990;BME280;4040;42.848;23.034;2023-03-04T10:29:34;94842.56;;;9.25;100.00
7990;BME280;4040;42.848;23.034;2023-03-04T10:32:02;94840.19;;;9.37;100.00
7990;BME280;4040;42.848;23.034;2023-03-04T10:37:51;94833.84;;;10.22;100.00
7990;BME280;4040;42.848;23.034;2023-03-04T10:43:41;94771.44;;;10.34;100.00
7990;BME280;4040;42.848;23.034;2023-03-04T10:49:32;94812.91;;;10.77;100.00
7990;BME280;4040;42.848;23.034;2023-03-04T10:55:23;94803.25;;;11.13;100.00
7990;BME280;4040;42.848;23.034;2023-03-04T11:01:15;94798.47;;;11.58;100.00
7990;BME280;4040;42.848;23.034;2023-03-04T11:07:14;94783.53;;;11.99;92.26
7990;BME280;4040;42.848;23.034;2023-03-04T11:13:11;94752.69;;;11.77;88.56
7990;BME280;4040;42.848;23.034;2023-03-04T11:19:12;94741.91;;;12.62;80.48
7990;BME280;4040;42.848;23.034;2023-03-04T11:25:07;94736.56;;;13.17;71.59
7990;BME280;4040;42.848;23.034;2023-03-04T11:30:57;94729.84;;;13.25;72.15
7990;BME280;4040;42.848;23.034;2023-03-04T11:36:53;94734.47;;;13.76;66.03
7990;BME280;4040;42.848;23.034;2023-03-04T11:42:50;94710.84;;;13.60;68.36
7990;BME280;4040;42.848;23.034;2023-03-04T11:48:48;94710.59;;;13.71;64.67
7990;BME280;4040;42.848;23.034;2023-03-04T11:54:47;94676.84;;;12.92;64.43
7990;BME280;4040;42.848;23.034;2023-03-04T12:00:46;94679.31;;;13.86;61.08
7990;BME280;4040;42.848;23.034;2023-03-04T12:06:47;94699.31;;;15.93;54.33
7990;BME280;4040;42.848;23.034;2023-03-04T12:12:50;94697.03;;;14.76;55.15
7990;BME280;4040;42.848;23.034;2023-03-04T12:18:59;94694.03;;;13.85;59.75
7990;BME280;4040;42.848;23.034;2023-03-04T12:25:14;94686.22;;;13.23;64.62
7990;BME280;4040;42.848;23.034;2023-03-04T12:31:32;94682.59;;;11.74;72.37
7990;BME280;4040;42.848;23.034;2023-03-04T12:43:50;94671.75;;;12.78;67.68
7990;BME280;4040;42.848;23.034;2023-03-04T12:50:00;94658.44;;;12.09;73.98
7990;BME280;4040;42.848;23.034;2023-03-04T12:55:54;94628.44;;;11.61;78.16
7990;BME280;4040;42.848;23.034;2023-03-04T13:01:49;94646.50;;;11.87;82.18
7990;BME280;4040;42.848;23.034;2023-03-04T13:07:51;94638.63;;;11.50;85.77
7990;BME280;4040;42.848;23.034;2023-03-04T13:14:00;94639.34;;;11.05;97.45
7990;BME280;4040;42.848;23.034;2023-03-04T13:19:51;94618.25;;;10.73;98.23
7990;BME280;4040;42.848;23.034;2023-03-04T13:25:44;94633.22;;;9.81;100.00
7990;BME280;4040;42.848;23.034;2023-03-04T13:31:57;94626.63;;;9.86;100.00
7990;BME280;4040;42.848;23.034;2023-03-04T13:37:56;94615.53;;;10.17;100.00
7990;BME280;4040;42.848;23.034;2023-03-04T13:43:45;94612.81;;;9.84;100.00
7990;BME280;4040;42.848;23.034;2023-03-04T13:49:36;94604.31;;;9.52;100.00
7990;BME280;4040;42.848;23.034;2023-03-04T13:55:34;94608.56;;;9.86;100.00
7990;BME280;4040;42.848;23.034;2023-03-04T14:01:25;94600.09;;;9.88;100.00
7990;BME280;4040;42.848;23.034;2023-03-04T14:07:23;94592.31;;;9.97;100.00
7990;BME280;4040;42.848;23.034;2023-03-04T14:13:12;94590.28;;;10.07;100.00
7990;BME280;4040;42.848;23.034;2023-03-04T14:19:03;94573.44;;;9.67;100.00
7990;BME280;4040;42.848;23.034;2023-03-04T14:25:03;94577.56;;;10.11;100.00
7990;BME280;4040;42.848;23.034;2023-03-04T14:30:53;94576.03;;;10.40;100.00
7990;BME280;4040;42.848;23.034;2023-03-04T14:36:43;94572.16;;;10.41;100.00
7990;BME280;4040;42.848;23.034;2023-03-04T14:42:37;94509.28;;;9.98;100.00
7990;BME280;4040;42.848;23.034;2023-03-04T14:48:30;94559.06;;;10.13;100.00
7990;BME280;4040;42.848;23.034;2023-03-04T14:54:34;94569.78;;;9.84;100.00
7990;BME280;4040;42.848;23.034;2023-03-04T15:00:28;94555.88;;;9.55;100.00
7990;BME280;4040;42.848;23.034;2023-03-04T15:06:18;94566.78;;;9.75;100.00
7990;BME280;4040;42.848;23.034;2023-03-04T15:12:09;94555.72;;;9.69;100.00
7990;BME280;4040;42.848;23.034;2023-03-04T15:18:00;94543.44;;;9.68;100.00
7990;BME280;4040;42.848;23.034;2023-03-04T15:23:49;94548.50;;;9.63;100.00
7990;BME280;4040;42.848;23.034;2023-03-04T15:29:38;94537.59;;;9.43;100.00
7990;BME280;4040;42.848;23.034;2023-03-04T15:35:30;94527.75;;;9.26;100.00
7990;BME280;4040;42.848;23.034;2023-03-04T15:41:21;94535.63;;;9.07;100.00
7990;BME280;4040;42.848;23.034;2023-03-04T15:47:12;94522.75;;;8.88;100.00
7990;BME280;4040;42.848;23.034;2023-03-04T15:53:05;94515.63;;;8.71;100.00
7990;BME280;4040;42.848;23.034;2023-03-04T15:58:55;94525.19;;;8.72;100.00
7990;BME280;4040;42.848;23.034;2023-03-04T16:04:45;94522.19;;;8.63;100.00
7990;BME280;4040;42.848;23.034;2023-03-04T16:10:35;94488.31;;;8.32;100.00
7990;BME280;4040;42.848;23.034;2023-03-04T16:16:24;94507.09;;;8.32;100.00
7990;BME280;4040;42.848;23.034;2023-03-04T16:22:14;94519.22;;;8.50;100.00
7990;BME280;4040;42.848;23.034;2023-03-04T16:28:05;94526.81;;;8.59;100.00
7990;BME280;4040;42.848;23.034;2023-03-04T16:33:54;94511.59;;;8.45;100.00
7990;BME280;4040;42.848;23.034;2023-03-04T16:39:44;94534.47;;;8.64;100.00
7990;BME280;4040;42.848;23.034;2023-03-04T16:45:34;94314.78;;;7.13;100.00
7990;BME280;4040;42.848;23.034;2023-03-04T16:51:23;94539.81;;;8.64;100.00
7990;BME280;4040;42.848;23.034;2023-03-04T16:57:12;94529.88;;;8.61;100.00
7990;BME280;4040;42.848;23.034;2023-03-04T17:03:03;94545.19;;;8.64;100.00
7990;BME280;4040;42.848;23.034;2023-03-04T17:08:51;94538.34;;;8.56;100.00
7990;BME280;4040;42.848;23.034;2023-03-04T17:14:40;94546.28;;;8.70;100.00
7990;BME280;4040;42.848;23.034;2023-03-04T17:20:31;94548.22;;;8.69;100.00
7990;BME280;4040;42.848;23.034;2023-03-04T17:26:20;94389.47;;;7.72;100.00
7990;BME280;4040;42.848;23.034;2023-03-04T17:32:09;94428.53;;;7.70;100.00
7990;BME280;4040;42.848;23.034;2023-03-04T17:38:00;94552.97;;;8.48;100.00
7990;BME280;4040;42.848;23.034;2023-03-04T17:43:50;94403.50;;;7.22;100.00
7990;BME280;4040;42.848;23.034;2023-03-04T17:49:41;94423.75;;;7.27;100.00
7990;BME280;4040;42.848;23.034;2023-03-04T17:55:31;94408.91;;;7.08;100.00
7990;BME280;4040;42.848;23.034;2023-03-04T18:01:20;94367.75;;;6.57;100.00
7990;BME280;4040;42.848;23.034;2023-03-04T18:07:09;94438.72;;;7.21;100.00
7990;BME280;4040;42.848;23.034;2023-03-04T18:13:00;94560.50;;;7.95;100.00
7990;BME280;4040;42.848;23.034;2023-03-04T18:18:49;94338.41;;;6.25;100.00
7990;BME280;4040;42.848;23.034;2023-03-04T18:24:38;94445.66;;;6.97;100.00
7990;BME280;4040;42.848;23.034;2023-03-04T18:30:29;94486.09;;;7.34;100.00
7990;BME280;4040;42.848;23.034;2023-03-04T18:40:22;94440.31;;;6.97;100.00
7990;BME280;4040;42.848;23.034;2023-03-04T18:46:26;94381.53;;;6.55;100.00
7990;BME280;4040;42.848;23.034;2023-03-04T18:52:15;94419.66;;;6.94;100.00
7990;BME280;4040;42.848;23.034;2023-03-04T18:58:04;94228.91;;;5.62;100.00
7990;BME280;4040;42.848;23.034;2023-03-04T19:03:56;94556.00;;;7.78;100.00
7990;BME280;4040;42.848;23.034;2023-03-04T19:09:49;94470.06;;;7.17;100.00
7990;BME280;4040;42.848;23.034;2023-03-04T19:15:38;94556.38;;;7.76;100.00
7990;BME280;4040;42.848;23.034;2023-03-04T19:21:28;94552.50;;;7.88;100.00
7990;BME280;4040;42.848;23.034;2023-03-04T19:27:17;94561.38;;;7.78;100.00
7990;BME280;4040;42.848;23.034;2023-03-04T19:33:06;94533.91;;;7.43;100.00
7990;BME280;4040;42.848;23.034;2023-03-04T19:43:20;94442.28;;;6.65;100.00
7990;BME280;4040;42.848;23.034;2023-03-04T19:49:08;94571.78;;;7.51;100.00
7990;BME280;4040;42.848;23.034;2023-03-04T19:54:57;94574.06;;;7.60;100.00
7990;BME280;4040;42.848;23.034;2023-03-04T20:00:48;94581.31;;;7.56;100.00
7990;BME280;4040;42.848;23.034;2023-03-04T20:06:40;94545.06;;;7.20;100.00
7990;BME280;4040;42.848;23.034;2023-03-04T20:12:30;94574.09;;;7.36;100.00
7990;BME280;4040;42.848;23.034;2023-03-04T20:18:21;94472.47;;;6.69;100.00
7990;BME280;4040;42.848;23.034;2023-03-04T20:24:10;94377.75;;;6.07;100.00
7990;BME280;4040;42.848;23.034;2023-03-04T20:29:59;94577.09;;;7.55;100.00
7990;BME280;4040;42.848;23.034;2023-03-04T20:35:52;94528.25;;;7.16;100.00
7990;BME280;4040;42.848;23.034;2023-03-04T20:46:26;94575.59;;;7.54;100.00
7990;BME280;4040;42.848;23.034;2023-03-04T20:52:16;94566.06;;;7.43;100.00
7990;BME280;4040;42.848;23.034;2023-03-04T20:58:05;94559.97;;;7.32;100.00
7990;BME280;4040;42.848;23.034;2023-03-04T21:03:54;94542.75;;;7.26;100.00
7990;BME280;4040;42.848;23.034;2023-03-04T21:09:44;94549.63;;;7.41;100.00
7990;BME280;4040;42.848;23.034;2023-03-04T21:15:34;94538.16;;;7.26;100.00
7990;BME280;4040;42.848;23.034;2023-03-04T21:21:24;94511.06;;;6.96;100.00
7990;BME280;4040;42.848;23.034;2023-03-04T21:27:16;94322.00;;;5.53;100.00
7990;BME280;4040;42.848;23.034;2023-03-04T21:33:05;94492.34;;;6.79;100.00
7990;BME280;4040;42.848;23.034;2023-03-04T21:38:53;94544.31;;;7.09;100.00
7990;BME280;4040;42.848;23.034;2023-03-04T21:49:05;94501.47;;;7.02;100.00
7990;BME280;4040;42.848;23.034;2023-03-04T21:54:55;94512.97;;;7.06;100.00
7990;BME280;4040;42.848;23.034;2023-03-04T22:00:44;94470.94;;;6.72;100.00
7990;BME280;4040;42.848;23.034;2023-03-04T22:06:37;94272.38;;;5.42;100.00
7990;BME280;4040;42.848;23.034;2023-03-04T22:12:26;94511.44;;;6.88;100.00
7990;BME280;4040;42.848;23.034;2023-03-04T22:18:15;94526.75;;;6.80;100.00
7990;BME280;4040;42.848;23.034;2023-03-04T22:24:06;94519.13;;;6.75;100.00
7990;BME280;4040;42.848;23.034;2023-03-04T22:29:54;94521.41;;;6.73;100.00
7990;BME280;4040;42.848;23.034;2023-03-04T22:35:43;94517.56;;;6.78;100.00
7990;BME280;4040;42.848;23.034;2023-03-04T22:41:34;94511.84;;;6.65;100.00
7990;BME280;4040;42.848;23.034;2023-03-04T22:51:44;94500.00;;;6.52;100.00
7990;BME280;4040;42.848;23.034;2023-03-04T22:57:35;94500.75;;;6.53;100.00
7990;BME280;4040;42.848;23.034;2023-03-04T23:08:29;94500.00;;;6.24;100.00
7990;BME280;4040;42.848;23.034;2023-03-04T23:14:17;94491.56;;;6.15;100.00
7990;BME280;4040;42.848;23.034;2023-03-04T23:20:09;94494.66;;;6.24;100.00
7990;BME280;4040;42.848;23.034;2023-03-04T23:26:14;94493.88;;;6.34;100.00
7990;BME280;4040;42.848;23.034;2023-03-04T23:32:03;94478.22;;;6.22;100.00
7990;BME280;4040;42.848;23.034;2023-03-04T23:37:51;94495.03;;;6.33;100.00
7990;BME280;4040;42.848;23.034;2023-03-04T23:43:42;94489.69;;;6.37;100.00
7990;BME280;4040;42.848;23.034;2023-03-04T23:49:31;94474.78;;;6.43;100.00
7990;BME280;4040;42.848;23.034;2023-03-04T23:55:20;94474.03;;;6.42;100.00
